sensor_id;sensor_type;location;lat;lon;timestamp;pressure;altitude;pressure_sealevel;temperature;humidity
22662;BME280;11497;52.222;21.246;2024-03-08T00:00:15;101321.75;;;-5.00;88.83
22662;BME280;11497;52.222;21.246;2024-03-08T00:03:06;101315.09;;;-4.99;89.18
22662;BME280;11497;52.222;21.246;2024-03-08T00:05:34;101312.19;;;-5.04;89.65
22662;BME280;11497;52.222;21.246;2024-03-08T00:08:02;101309.22;;;-5.10;89.26
22662;BME280;11497;52.222;21.246;2024-03-08T00:10:30;101313.22;;;-5.12;89.55
22662;BME280;11497;52.222;21.246;2024-03-08T00:12:58;101306.31;;;-5.15;89.60
22662;BME280;11497;52.222;21.246;2024-03-08T00:15:26;101309.56;;;-5.16;89.78
22662;BME280;11497;52.222;21.246;2024-03-08T00:17:54;101305.19;;;-5.18;89.78
22662;BME280;11497;52.222;21.246;2024-03-08T00:20:22;101304.81;;;-5.23;89.44
22662;BME280;11497;52.222;21.246;2024-03-08T00:22:51;101310.47;;;-5.25;90.02
22662;BME280;11497;52.222;21.246;2024-03-08T00:25:19;101306.06;;;-5.28;89.58
22662;BME280;11497;52.222;21.246;2024-03-08T00:27:47;101298.78;;;-5.25;90.26
22662;BME280;11497;52.222;21.246;2024-03-08T00:30:17;101306.56;;;-5.22;89.71
22662;BME280;11497;52.222;21.246;2024-03-08T00:32:45;101303.06;;;-5.24;89.69
22662;BME280;11497;52.222;21.246;2024-03-08T00:35:13;101298.19;;;-5.33;90.04
22662;BME280;11497;52.222;21.246;2024-03-08T00:37:41;101305.59;;;-5.34;89.98
22662;BME280;11497;52.222;21.246;2024-03-08T00:40:10;101301.31;;;-5.35;89.86
22662;BME280;11497;52.222;21.246;2024-03-08T00:42:40;101299.31;;;-5.39;90.07
22662;BME280;11497;52.222;21.246;2024-03-08T00:45:09;101299.31;;;-5.39;90.20
22662;BME280;11497;52.222;21.246;2024-03-08T00:47:38;101299.91;;;-5.42;89.89
22662;BME280;11497;52.222;21.246;2024-03-08T00:50:07;101297.28;;;-5.43;90.49
22662;BME280;11497;52.222;21.246;2024-03-08T00:52:37;101297.41;;;-5.42;90.04
22662;BME280;11497;52.222;21.246;2024-03-08T00:55:05;101294.66;;;-5.45;90.28
22662;BME280;11497;52.222;21.246;2024-03-08T00:57:33;101288.03;;;-5.44;90.18
22662;BME280;11497;52.222;21.246;2024-03-08T01:00:03;101292.91;;;-5.46;90.47
22662;BME280;11497;52.222;21.246;2024-03-08T01:02:36;101287.03;;;-5.47;90.18
22662;BME280;11497;52.222;21.246;2024-03-08T01:05:04;101293.53;;;-5.49;89.83
22662;BME280;11497;52.222;21.246;2024-03-08T01:07:35;101295.41;;;-5.46;90.26
22662;BME280;11497;52.222;21.246;2024-03-08T01:10:04;101299.31;;;-5.50;90.45
22662;BME280;11497;52.222;21.246;2024-03-08T01:12:38;101290.28;;;-5.48;90.25
22662;BME280;11497;52.222;21.246;2024-03-08T01:15:06;101294.56;;;-5.47;90.15
22662;BME280;11497;52.222;21.246;2024-03-08T01:17:34;101290.78;;;-5.52;90.55
22662;BME280;11497;52.222;21.246;2024-03-08T01:20:03;101285.38;;;-5.56;90.52
22662;BME280;11497;52.222;21.246;2024-03-08T01:22:31;101289.41;;;-5.58;90.79
22662;BME280;11497;52.222;21.246;2024-03-08T01:24:59;101279.84;;;-5.62;90.50
22662;BME280;11497;52.222;21.246;2024-03-08T01:27:27;101282.88;;;-5.67;90.36
22662;BME280;11497;52.222;21.246;2024-03-08T01:29:55;101281.22;;;-5.66;90.20
22662;BME280;11497;52.222;21.246;2024-03-08T01:32:23;101278.44;;;-5.69;90.43
22662;BME280;11497;52.222;21.246;2024-03-08T01:34:51;101275.72;;;-5.72;90.66
22662;BME280;11497;52.222;21.246;2024-03-08T01:37:19;101281.47;;;-5.73;90.98
22662;BME280;11497;52.222;21.246;2024-03-08T01:39:47;101276.72;;;-5.70;90.54
22662;BME280;11497;52.222;21.246;2024-03-08T01:42:15;101276.22;;;-5.66;90.71
22662;BME280;11497;52.222;21.246;2024-03-08T01:44:45;101272.44;;;-5.71;90.09
22662;BME280;11497;52.222;21.246;2024-03-08T01:47:13;101275.72;;;-5.72;90.87
22662;BME280;11497;52.222;21.246;2024-03-08T01:49:41;101265.44;;;-5.75;90.17
22662;BME280;11497;52.222;21.246;2024-03-08T01:52:10;101273.56;;;-5.78;90.58
22662;BME280;11497;52.222;21.246;2024-03-08T01:54:39;101269.19;;;-5.80;90.76
22662;BME280;11497;52.222;21.246;2024-03-08T01:57:08;101268.78;;;-5.85;90.93
22662;BME280;11497;52.222;21.246;2024-03-08T01:59:37;101271.94;;;-5.88;90.83
22662;BME280;11497;52.222;21.246;2024-03-08T02:02:06;101272.06;;;-5.86;90.88
22662;BME280;11497;52.222;21.246;2024-03-08T02:04:37;101265.91;;;-5.90;90.42
22662;BME280;11497;52.222;21.246;2024-03-08T02:07:06;101260.78;;;-5.91;91.09
22662;BME280;11497;52.222;21.246;2024-03-08T02:09:38;101258.88;;;-5.94;90.70
22662;BME280;11497;52.222;21.246;2024-03-08T02:12:07;101260.41;;;-5.96;90.79
22662;BME280;11497;52.222;21.246;2024-03-08T02:14:38;101266.16;;;-5.97;90.56
22662;BME280;11497;52.222;21.246;2024-03-08T02:17:07;101259.28;;;-5.99;91.10
22662;BME280;11497;52.222;21.246;2024-03-08T02:19:35;101258.28;;;-6.01;90.84
22662;BME280;11497;52.222;21.246;2024-03-08T02:22:05;101256.53;;;-6.03;90.87
22662;BME280;11497;52.222;21.246;2024-03-08T02:24:33;101259.75;;;-6.04;90.86
22662;BME280;11497;52.222;21.246;2024-03-08T02:27:01;101254.75;;;-6.04;90.83
22662;BME280;11497;52.222;21.246;2024-03-08T02:29:29;101252.13;;;-6.05;90.79
22662;BME280;11497;52.222;21.246;2024-03-08T02:31:58;101257.91;;;-6.06;90.89
22662;BME280;11497;52.222;21.246;2024-03-08T02:34:26;101253.34;;;-6.10;91.05
22662;BME280;11497;52.222;21.246;2024-03-08T02:36:54;101262.50;;;-6.11;91.12
22662;BME280;11497;52.222;21.246;2024-03-08T02:39:24;101250.47;;;-6.15;91.18
22662;BME280;11497;52.222;21.246;2024-03-08T02:41:52;101254.72;;;-6.14;91.08
22662;BME280;11497;52.222;21.246;2024-03-08T02:44:20;101250.47;;;-6.15;91.16
22662;BME280;11497;52.222;21.246;2024-03-08T02:46:49;101256.38;;;-6.14;91.28
22662;BME280;11497;52.222;21.246;2024-03-08T02:49:18;101246.34;;;-6.14;91.18
22662;BME280;11497;52.222;21.246;2024-03-08T02:51:46;101248.97;;;-6.13;91.17
22662;BME280;11497;52.222;21.246;2024-03-08T02:54:14;101254.88;;;-6.12;91.11
22662;BME280;11497;52.222;21.246;2024-03-08T02:56:42;101250.47;;;-6.15;90.92
22662;BME280;11497;52.222;21.246;2024-03-08T02:59:10;101241.84;;;-6.18;90.91
22662;BME280;11497;52.222;21.246;2024-03-08T03:01:37;101246.72;;;-6.20;91.01
22662;BME280;11497;52.222;21.246;2024-03-08T03:04:06;101237.44;;;-6.21;91.13
22662;BME280;11497;52.222;21.246;2024-03-08T03:06:34;101243.81;;;-6.25;91.09
22662;BME280;11497;52.222;21.246;2024-03-08T03:09:02;101246.19;;;-6.26;91.05
22662;BME280;11497;52.222;21.246;2024-03-08T03:11:33;101235.03;;;-6.30;90.93
22662;BME280;11497;52.222;21.246;2024-03-08T03:14:02;101243.31;;;-6.31;91.03
22662;BME280;11497;52.222;21.246;2024-03-08T03:16:29;101244.19;;;-6.30;91.10
22662;BME280;11497;52.222;21.246;2024-03-08T03:18:57;101241.41;;;-6.33;91.30
22662;BME280;11497;52.222;21.246;2024-03-08T03:21:28;101238.91;;;-6.33;90.82
22662;BME280;11497;52.222;21.246;2024-03-08T03:23:59;101238.03;;;-6.34;91.20
22662;BME280;11497;52.222;21.246;2024-03-08T03:26:27;101244.06;;;-6.32;90.84
22662;BME280;11497;52.222;21.246;2024-03-08T03:28:55;101241.69;;;-6.30;91.07
22662;BME280;11497;52.222;21.246;2024-03-08T03:31:24;101236.16;;;-6.26;90.86
22662;BME280;11497;52.222;21.246;2024-03-08T03:33:53;101233.03;;;-6.34;91.17
22662;BME280;11497;52.222;21.246;2024-03-08T03:36:21;101235.03;;;-6.30;91.22
22662;BME280;11497;52.222;21.246;2024-03-08T03:38:49;101240.81;;;-6.31;91.02
22662;BME280;11497;52.222;21.246;2024-03-08T03:41:17;101236.53;;;-6.32;91.25
22662;BME280;11497;52.222;21.246;2024-03-08T03:43:45;101239.63;;;-6.34;91.17
22662;BME280;11497;52.222;21.246;2024-03-08T03:46:13;101237.03;;;-6.36;91.43
22662;BME280;11497;52.222;21.246;2024-03-08T03:48:41;101228.63;;;-6.36;90.74
22662;BME280;11497;52.222;21.246;2024-03-08T03:51:10;101238.38;;;-6.39;90.58
22662;BME280;11497;52.222;21.246;2024-03-08T03:53:38;101230.75;;;-6.41;90.91
22662;BME280;11497;52.222;21.246;2024-03-08T03:56:06;101229.72;;;-6.43;90.96
22662;BME280;11497;52.222;21.246;2024-03-08T03:58:34;101231.22;;;-6.45;90.54
22662;BME280;11497;52.222;21.246;2024-03-08T04:01:07;101225.22;;;-6.47;91.03
22662;BME280;11497;52.222;21.246;2024-03-08T04:03:35;101225.34;;;-6.46;90.99
22662;BME280;11497;52.222;21.246;2024-03-08T04:06:05;101228.59;;;-6.47;90.89
22662;BME280;11497;52.222;21.246;2024-03-08T04:08:33;101224.06;;;-6.51;90.79
22662;BME280;11497;52.222;21.246;2024-03-08T04:11:02;101222.19;;;-6.53;90.77
22662;BME280;11497;52.222;21.246;2024-03-08T04:13:30;101224.81;;;-6.52;90.70
22662;BME280;11497;52.222;21.246;2024-03-08T04:15:58;101223.81;;;-6.54;90.66
22662;BME280;11497;52.222;21.246;2024-03-08T04:18:26;101224.69;;;-6.53;90.94
22662;BME280;11497;52.222;21.246;2024-03-08T04:20:55;101223.81;;;-6.54;90.91
22662;BME280;11497;52.222;21.246;2024-03-08T04:23:23;101218.53;;;-6.57;90.59
22662;BME280;11497;52.222;21.246;2024-03-08T04:25:51;101216.03;;;-6.57;90.52
22662;BME280;11497;52.222;21.246;2024-03-08T04:28:20;101217.53;;;-6.59;90.98
22662;BME280;11497;52.222;21.246;2024-03-08T04:30:47;101215.66;;;-6.62;90.96
22662;BME280;11497;52.222;21.246;2024-03-08T04:33:15;101221.13;;;-6.66;90.54
22662;BME280;11497;52.222;21.246;2024-03-08T04:35:46;101224.41;;;-6.67;90.73
22662;BME280;11497;52.222;21.246;2024-03-08T04:38:14;101217.50;;;-6.69;90.82
22662;BME280;11497;52.222;21.246;2024-03-08T04:40:43;101219.13;;;-6.70;91.13
22662;BME280;11497;52.222;21.246;2024-03-08T04:43:11;101220.13;;;-6.68;91.04
22662;BME280;11497;52.222;21.246;2024-03-08T04:45:39;101228.19;;;-6.62;90.88
22662;BME280;11497;52.222;21.246;2024-03-08T04:48:10;101220.66;;;-6.62;91.01
22662;BME280;11497;52.222;21.246;2024-03-08T04:50:39;101221.28;;;-6.64;90.82
22662;BME280;11497;52.222;21.246;2024-03-08T04:53:07;101217.91;;;-6.65;90.70
22662;BME280;11497;52.222;21.246;2024-03-08T04:55:35;101217.13;;;-6.64;91.05
22662;BME280;11497;52.222;21.246;2024-03-08T04:58:05;101219.78;;;-6.62;90.58
22662;BME280;11497;52.222;21.246;2024-03-08T05:00:36;101221.16;;;-6.55;90.73
22662;BME280;11497;52.222;21.246;2024-03-08T05:03:04;101222.19;;;-6.53;90.64
22662;BME280;11497;52.222;21.246;2024-03-08T05:05:32;101219.16;;;-6.60;90.30
22662;BME280;11497;52.222;21.246;2024-03-08T05:08:01;101216.78;;;-6.58;90.43
22662;BME280;11497;52.222;21.246;2024-03-08T05:10:29;101214.28;;;-6.58;90.47
22662;BME280;11497;52.222;21.246;2024-03-08T05:12:57;101210.03;;;-6.59;90.30
22662;BME280;11497;52.222;21.246;2024-03-08T05:15:25;101217.66;;;-6.57;90.41
22662;BME280;11497;52.222;21.246;2024-03-08T05:17:53;101223.94;;;-6.52;90.70
22662;BME280;11497;52.222;21.246;2024-03-08T05:20:21;101226.97;;;-6.46;90.64
22662;BME280;11497;52.222;21.246;2024-03-08T05:22:50;101232.22;;;-6.43;90.62
22662;BME280;11497;52.222;21.246;2024-03-08T05:25:18;101215.81;;;-6.39;90.49
22662;BME280;11497;52.222;21.246;2024-03-08T05:27:46;101222.22;;;-6.33;90.63
22662;BME280;11497;52.222;21.246;2024-03-08T05:30:15;101222.91;;;-6.25;90.76
22662;BME280;11497;52.222;21.246;2024-03-08T05:32:43;101220.16;;;-6.18;90.70
22662;BME280;11497;52.222;21.246;2024-03-08T05:35:14;101219.16;;;-6.10;91.07
22662;BME280;11497;52.222;21.246;2024-03-08T05:37:44;101216.81;;;-5.98;90.93
22662;BME280;11497;52.222;21.246;2024-03-08T05:40:12;101224.53;;;-5.85;90.70
22662;BME280;11497;52.222;21.246;2024-03-08T05:42:45;101214.88;;;-5.70;90.60
22662;BME280;11497;52.222;21.246;2024-03-08T05:45:14;101216.00;;;-5.35;90.31
22662;BME280;11497;52.222;21.246;2024-03-08T05:47:43;101209.72;;;-4.87;90.33
22662;BME280;11497;52.222;21.246;2024-03-08T05:50:11;101209.69;;;-4.23;90.01
22662;BME280;11497;52.222;21.246;2024-03-08T05:52:39;101203.75;;;-3.32;89.79
22662;BME280;11497;52.222;21.246;2024-03-08T05:55:07;101202.53;;;-2.29;90.78
22662;BME280;11497;52.222;21.246;2024-03-08T05:57:38;101202.34;;;-2.07;89.38
22662;BME280;11497;52.222;21.246;2024-03-08T06:00:08;101198.75;;;-1.85;88.89
22662;BME280;11497;52.222;21.246;2024-03-08T06:02:41;101197.19;;;-0.91;87.48
22662;BME280;11497;52.222;21.246;2024-03-08T06:05:10;101191.69;;;0.57;84.94
22662;BME280;11497;52.222;21.246;2024-03-08T06:07:39;101193.84;;;0.66;80.78
22662;BME280;11497;52.222;21.246;2024-03-08T06:10:11;101193.69;;;0.33;79.10
22662;BME280;11497;52.222;21.246;2024-03-08T06:12:45;101198.31;;;1.16;78.85
22662;BME280;11497;52.222;21.246;2024-03-08T06:15:13;101201.56;;;1.78;72.03
22662;BME280;11497;52.222;21.246;2024-03-08T06:17:44;101203.19;;;1.44;68.90
22662;BME280;11497;52.222;21.246;2024-03-08T06:20:12;101204.22;;;1.31;70.93
22662;BME280;11497;52.222;21.246;2024-03-08T06:22:42;101201.03;;;2.00;71.25
22662;BME280;11497;52.222;21.246;2024-03-08T06:25:12;101192.63;;;3.43;64.24
22662;BME280;11497;52.222;21.246;2024-03-08T06:27:44;101192.38;;;5.22;62.31
22662;BME280;11497;52.222;21.246;2024-03-08T06:30:14;101187.50;;;7.30;57.31
22662;BME280;11497;52.222;21.246;2024-03-08T06:32:44;101180.50;;;8.86;50.85
22662;BME280;11497;52.222;21.246;2024-03-08T06:35:12;101182.91;;;10.03;46.65
22662;BME280;11497;52.222;21.246;2024-03-08T06:37:40;101181.84;;;10.92;40.39
22662;BME280;11497;52.222;21.246;2024-03-08T06:40:10;101186.03;;;11.48;38.38
22662;BME280;11497;52.222;21.246;2024-03-08T06:42:42;101175.56;;;12.09;36.12
22662;BME280;11497;52.222;21.246;2024-03-08T06:45:10;101175.22;;;12.72;33.45
22662;BME280;11497;52.222;21.246;2024-03-08T06:47:40;101176.31;;;13.03;33.85
22662;BME280;11497;52.222;21.246;2024-03-08T06:50:09;101179.25;;;12.33;31.67
22662;BME280;11497;52.222;21.246;2024-03-08T06:52:37;101172.56;;;12.60;32.71
22662;BME280;11497;52.222;21.246;2024-03-08T06:55:06;101171.50;;;13.88;31.18
22662;BME280;11497;52.222;21.246;2024-03-08T06:57:35;101175.00;;;14.92;29.44
22662;BME280;11497;52.222;21.246;2024-03-08T07:00:03;101168.97;;;14.57;29.35
22662;BME280;11497;52.222;21.246;2024-03-08T07:02:31;101173.22;;;13.84;29.25
22662;BME280;11497;52.222;21.246;2024-03-08T07:05:00;101169.00;;;14.36;30.48
22662;BME280;11497;52.222;21.246;2024-03-08T07:07:29;101166.28;;;13.71;29.48
22662;BME280;11497;52.222;21.246;2024-03-08T07:09:58;101171.41;;;12.25;31.75
22662;BME280;11497;52.222;21.246;2024-03-08T07:12:26;101175.56;;;10.73;33.51
22662;BME280;11497;52.222;21.246;2024-03-08T07:14:54;101177.00;;;10.08;36.43
22662;BME280;11497;52.222;21.246;2024-03-08T07:17:22;101183.03;;;9.22;37.72
22662;BME280;11497;52.222;21.246;2024-03-08T07:19:52;101172.31;;;9.43;39.29
22662;BME280;11497;52.222;21.246;2024-03-08T07:22:22;101175.28;;;9.62;38.38
22662;BME280;11497;52.222;21.246;2024-03-08T07:24:51;101170.91;;;9.57;38.17
22662;BME280;11497;52.222;21.246;2024-03-08T07:27:53;101169.19;;;9.56;38.44
22662;BME280;11497;52.222;21.246;2024-03-08T07:30:25;101170.25;;;9.66;38.06
22662;BME280;11497;52.222;21.246;2024-03-08T07:33:11;101172.06;;;10.21;37.80
22662;BME280;11497;52.222;21.246;2024-03-08T07:35:42;101163.47;;;10.70;36.48
22662;BME280;11497;52.222;21.246;2024-03-08T07:38:12;101164.59;;;10.88;35.57
22662;BME280;11497;52.222;21.246;2024-03-08T07:40:41;101160.69;;;11.15;35.59
22662;BME280;11497;52.222;21.246;2024-03-08T07:43:13;101163.28;;;11.87;35.21
22662;BME280;11497;52.222;21.246;2024-03-08T07:45:41;101163.09;;;12.57;34.15
22662;BME280;11497;52.222;21.246;2024-03-08T07:48:09;101158.47;;;13.53;32.71
22662;BME280;11497;52.222;21.246;2024-03-08T07:50:38;101152.56;;;14.41;30.83
22662;BME280;11497;52.222;21.246;2024-03-08T07:53:08;101160.34;;;14.88;29.65
22662;BME280;11497;52.222;21.246;2024-03-08T07:55:37;101145.59;;;15.08;29.04
22662;BME280;11497;52.222;21.246;2024-03-08T07:58:05;101148.16;;;15.16;28.54
22662;BME280;11497;52.222;21.246;2024-03-08T08:00:34;101154.16;;;15.33;27.86
22662;BME280;11497;52.222;21.246;2024-03-08T08:03:04;101147.28;;;15.22;28.26
22662;BME280;11497;52.222;21.246;2024-03-08T08:05:32;101140.69;;;16.21;26.59
22662;BME280;11497;52.222;21.246;2024-03-08T08:08:03;101146.00;;;17.73;24.86
22662;BME280;11497;52.222;21.246;2024-03-08T08:10:34;101145.50;;;19.51;21.62
22662;BME280;11497;52.222;21.246;2024-03-08T08:13:02;101145.34;;;20.69;20.11
22662;BME280;11497;52.222;21.246;2024-03-08T08:15:32;101144.28;;;21.69;18.62
22662;BME280;11497;52.222;21.246;2024-03-08T08:18:03;101141.13;;;22.66;18.68
22662;BME280;11497;52.222;21.246;2024-03-08T08:20:34;101133.66;;;23.73;17.42
22662;BME280;11497;52.222;21.246;2024-03-08T08:23:02;101132.00;;;24.58;16.38
22662;BME280;11497;52.222;21.246;2024-03-08T08:25:30;101131.97;;;25.56;15.50
22662;BME280;11497;52.222;21.246;2024-03-08T08:27:59;101135.34;;;25.40;14.67
22662;BME280;11497;52.222;21.246;2024-03-08T08:30:26;101139.38;;;25.48;14.43
22662;BME280;11497;52.222;21.246;2024-03-08T08:32:55;101135.78;;;25.31;14.22
22662;BME280;11497;52.222;21.246;2024-03-08T08:35:26;101130.69;;;25.64;14.43
22662;BME280;11497;52.222;21.246;2024-03-08T08:37:54;101133.84;;;25.90;12.99
22662;BME280;11497;52.222;21.246;2024-03-08T08:40:21;101127.47;;;26.13;13.12
22662;BME280;11497;52.222;21.246;2024-03-08T08:42:50;101124.06;;;26.64;12.66
22662;BME280;11497;52.222;21.246;2024-03-08T08:45:18;101120.72;;;26.25;12.52
22662;BME280;11497;52.222;21.246;2024-03-08T08:47:52;101120.69;;;25.71;12.52
22662;BME280;11497;52.222;21.246;2024-03-08T08:50:22;101117.06;;;26.10;12.82
22662;BME280;11497;52.222;21.246;2024-03-08T08:52:52;101107.81;;;26.01;11.80
22662;BME280;11497;52.222;21.246;2024-03-08T08:55:21;101111.72;;;26.12;11.85
22662;BME280;11497;52.222;21.246;2024-03-08T08:57:54;101109.63;;;26.18;12.27
22662;BME280;11497;52.222;21.246;2024-03-08T09:00:22;101107.28;;;26.12;12.38
22662;BME280;11497;52.222;21.246;2024-03-08T09:02:55;101103.53;;;26.16;12.72
22662;BME280;11497;52.222;21.246;2024-03-08T09:05:26;101104.06;;;26.41;12.37
22662;BME280;11497;52.222;21.246;2024-03-08T09:07:54;101112.34;;;26.85;11.31
22662;BME280;11497;52.222;21.246;2024-03-08T09:10:23;101108.94;;;26.83;11.94
22662;BME280;11497;52.222;21.246;2024-03-08T09:12:57;101109.53;;;26.88;11.53
22662;BME280;11497;52.222;21.246;2024-03-08T09:15:27;101104.41;;;25.99;11.86
22662;BME280;11497;52.222;21.246;2024-03-08T09:17:57;101097.34;;;26.00;12.14
22662;BME280;11497;52.222;21.246;2024-03-08T09:20:26;101097.44;;;25.79;12.20
22662;BME280;11497;52.222;21.246;2024-03-08T09:22:54;101088.91;;;25.92;12.07
22662;BME280;11497;52.222;21.246;2024-03-08T09:25:22;101096.75;;;25.76;12.12
22662;BME280;11497;52.222;21.246;2024-03-08T09:27:50;101086.53;;;25.51;11.90
22662;BME280;11497;52.222;21.246;2024-03-08T09:30:18;101095.81;;;25.40;12.49
22662;BME280;11497;52.222;21.246;2024-03-08T09:32:48;101086.13;;;25.41;12.30
22662;BME280;11497;52.222;21.246;2024-03-08T09:35:17;101082.28;;;25.10;12.80
22662;BME280;11497;52.222;21.246;2024-03-08T09:37:45;101083.44;;;24.84;12.33
22662;BME280;11497;52.222;21.246;2024-03-08T09:40:15;101080.25;;;23.95;13.09
22662;BME280;11497;52.222;21.246;2024-03-08T09:42:45;101079.38;;;23.94;13.13
22662;BME280;11497;52.222;21.246;2024-03-08T09:45:14;101083.19;;;23.87;13.62
22662;BME280;11497;52.222;21.246;2024-03-08T09:47:44;101072.75;;;24.06;13.21
22662;BME280;11497;52.222;21.246;2024-03-08T09:50:12;101075.41;;;23.84;12.95
22662;BME280;11497;52.222;21.246;2024-03-08T09:52:41;101077.03;;;24.09;13.46
22662;BME280;11497;52.222;21.246;2024-03-08T09:55:11;101071.06;;;24.26;12.94
22662;BME280;11497;52.222;21.246;2024-03-08T09:57:43;101069.97;;;23.67;13.75
22662;BME280;11497;52.222;21.246;2024-03-08T10:00:31;101062.69;;;23.73;13.38
22662;BME280;11497;52.222;21.246;2024-03-08T10:03:02;101063.59;;;23.94;13.06
22662;BME280;11497;52.222;21.246;2024-03-08T10:05:31;101065.25;;;23.97;13.23
22662;BME280;11497;52.222;21.246;2024-03-08T10:08:02;101060.44;;;22.95;13.70
22662;BME280;11497;52.222;21.246;2024-03-08T10:10:30;101061.41;;;23.39;13.79
22662;BME280;11497;52.222;21.246;2024-03-08T10:12:58;101058.09;;;23.56;13.35
22662;BME280;11497;52.222;21.246;2024-03-08T10:15:28;101059.22;;;23.51;13.31
22662;BME280;11497;52.222;21.246;2024-03-08T10:17:57;101054.69;;;23.54;13.33
22662;BME280;11497;52.222;21.246;2024-03-08T10:20:25;101049.66;;;23.48;13.37
22662;BME280;11497;52.222;21.246;2024-03-08T10:22:56;101050.81;;;23.41;13.29
22662;BME280;11497;52.222;21.246;2024-03-08T10:25:37;101052.13;;;23.53;13.31
22662;BME280;11497;52.222;21.246;2024-03-08T10:28:05;101043.69;;;23.45;13.35
22662;BME280;11497;52.222;21.246;2024-03-08T10:30:34;101052.88;;;22.87;13.38
22662;BME280;11497;52.222;21.246;2024-03-08T10:33:02;101050.94;;;21.07;14.53
22662;BME280;11497;52.222;21.246;2024-03-08T10:35:33;101052.56;;;18.58;16.77
22662;BME280;11497;52.222;21.246;2024-03-08T10:38:01;101060.06;;;16.30;19.38
22662;BME280;11497;52.222;21.246;2024-03-08T10:40:35;101061.06;;;14.15;22.27
22662;BME280;11497;52.222;21.246;2024-03-08T10:43:11;101066.00;;;12.99;24.14
22662;BME280;11497;52.222;21.246;2024-03-08T10:45:46;101062.13;;;12.23;25.11
22662;BME280;11497;52.222;21.246;2024-03-08T10:48:29;101055.59;;;11.66;25.85
22662;BME280;11497;52.222;21.246;2024-03-08T10:51:06;101049.94;;;11.18;27.58
22662;BME280;11497;52.222;21.246;2024-03-08T10:53:36;101053.09;;;10.95;28.53
22662;BME280;11497;52.222;21.246;2024-03-08T10:56:09;101046.84;;;10.78;29.14
22662;BME280;11497;52.222;21.246;2024-03-08T10:58:38;101055.25;;;10.63;29.80
22662;BME280;11497;52.222;21.246;2024-03-08T11:01:06;101045.44;;;10.37;29.12
22662;BME280;11497;52.222;21.246;2024-03-08T11:06:31;101045.41;;;9.84;30.00
22662;BME280;11497;52.222;21.246;2024-03-08T11:09:28;101044.25;;;9.68;30.78
22662;BME280;11497;52.222;21.246;2024-03-08T11:12:38;101037.34;;;9.64;30.46
22662;BME280;11497;52.222;21.246;2024-03-08T11:15:13;101038.88;;;9.54;30.73
22662;BME280;11497;52.222;21.246;2024-03-08T11:17:50;101035.34;;;9.47;30.37
22662;BME280;11497;52.222;21.246;2024-03-08T11:20:20;101037.75;;;9.38;30.71
22662;BME280;11497;52.222;21.246;2024-03-08T11:22:59;101036.75;;;9.31;30.08
22662;BME280;11497;52.222;21.246;2024-03-08T11:25:36;101025.44;;;9.20;30.30
22662;BME280;11497;52.222;21.246;2024-03-08T11:28:24;101024.50;;;9.16;30.50
22662;BME280;11497;52.222;21.246;2024-03-08T11:33:31;101027.09;;;9.18;30.57
22662;BME280;11497;52.222;21.246;2024-03-08T11:36:11;101017.56;;;9.12;29.84
22662;BME280;11497;52.222;21.246;2024-03-08T11:38:45;101017.50;;;9.09;30.94
22662;BME280;11497;52.222;21.246;2024-03-08T11:41:24;101015.88;;;9.14;31.05
22662;BME280;11497;52.222;21.246;2024-03-08T11:44:03;101013.34;;;9.16;31.11
22662;BME280;11497;52.222;21.246;2024-03-08T11:46:35;101011.75;;;9.23;29.98
22662;BME280;11497;52.222;21.246;2024-03-08T11:49:02;101006.50;;;9.15;30.50
22662;BME280;11497;52.222;21.246;2024-03-08T11:51:32;101000.44;;;9.11;29.35
22662;BME280;11497;52.222;21.246;2024-03-08T11:54:00;100999.44;;;9.05;30.30
22662;BME280;11497;52.222;21.246;2024-03-08T11:56:29;101003.81;;;9.10;29.52
22662;BME280;11497;52.222;21.246;2024-03-08T11:58:57;100996.72;;;8.97;30.43
22662;BME280;11497;52.222;21.246;2024-03-08T12:01:26;100989.00;;;8.97;29.31
22662;BME280;11497;52.222;21.246;2024-03-08T12:03:57;100989.00;;;8.97;29.33
22662;BME280;11497;52.222;21.246;2024-03-08T12:06:37;100984.34;;;8.77;29.85
22662;BME280;11497;52.222;21.246;2024-03-08T12:09:12;100992.84;;;8.73;29.88
22662;BME280;11497;52.222;21.246;2024-03-08T12:11:40;100984.34;;;8.77;29.61
22662;BME280;11497;52.222;21.246;2024-03-08T12:14:10;100975.50;;;8.64;30.17
22662;BME280;11497;52.222;21.246;2024-03-08T12:16:38;100982.38;;;8.66;30.27
22662;BME280;11497;52.222;21.246;2024-03-08T12:19:06;100981.44;;;8.60;31.17
22662;BME280;11497;52.222;21.246;2024-03-08T12:21:35;100976.41;;;8.65;31.29
22662;BME280;11497;52.222;21.246;2024-03-08T12:24:05;100975.63;;;8.69;30.30
22662;BME280;11497;52.222;21.246;2024-03-08T12:26:38;100978.97;;;8.65;30.60
22662;BME280;11497;52.222;21.246;2024-03-08T12:31:52;100968.66;;;8.63;30.96
22662;BME280;11497;52.222;21.246;2024-03-08T12:34:21;100965.28;;;8.66;32.20
22662;BME280;11497;52.222;21.246;2024-03-08T12:36:50;100969.72;;;8.75;32.23
22662;BME280;11497;52.222;21.246;2024-03-08T12:39:23;100952.69;;;8.77;31.03
22662;BME280;11497;52.222;21.246;2024-03-08T12:41:56;100946.03;;;8.88;30.73
22662;BME280;11497;52.222;21.246;2024-03-08T12:44:29;100944.25;;;8.84;30.68
22662;BME280;11497;52.222;21.246;2024-03-08T12:46:58;100946.78;;;8.82;30.33
22662;BME280;11497;52.222;21.246;2024-03-08T12:49:27;100942.41;;;8.77;30.85
22662;BME280;11497;52.222;21.246;2024-03-08T12:51:55;100943.38;;;8.83;30.90
22662;BME280;11497;52.222;21.246;2024-03-08T12:54:23;100938.47;;;8.94;30.58
22662;BME280;11497;52.222;21.246;2024-03-08T12:56:52;100938.31;;;8.87;30.16
22662;BME280;11497;52.222;21.246;2024-03-08T12:59:22;100922.81;;;8.80;30.51
22662;BME280;11497;52.222;21.246;2024-03-08T13:01:52;100931.22;;;8.75;30.60
22662;BME280;11497;52.222;21.246;2024-03-08T13:04:21;100929.50;;;8.72;30.49